Terminal Aerodrome Forecast
Issued by NWS

Home | Current Version | Previous Version | Text Only | Print | Product List | Glossary On
Versions: 1 2 3 4 5 6 7 8 9 10 11 12 13 14 15 16 17 18 19 20 21
000
FTUS46 KMFR 030545
TAFOTH
TAF
KOTH 030545Z 0306/0406 VRB03KT P6SM OVC010
     FM031700 32008KT P6SM OVC020
     FM032000 33014G22KT P6SM SCT020 BKN030
     FM040300 35012G18KT P6SM OVC020=

USA.gov is the U.S. government's official web portal to all federal, state and local government web resources and services.